sensor_id;sensor_type;location;lat;lon;timestamp;P1;durP1;ratioP1;P2;durP2;ratioP2
25479;SDS011;13393;49.378;8.686;2022-11-20T00:01:17;5.03;;;4.10;;
25479;SDS011;13393;49.378;8.686;2022-11-20T00:03:45;3.88;;;3.47;;
25479;SDS011;13393;49.378;8.686;2022-11-20T00:06:12;3.95;;;3.28;;
25479;SDS011;13393;49.378;8.686;2022-11-20T00:08:39;3.90;;;3.38;;
25479;SDS011;13393;49.378;8.686;2022-11-20T00:11:06;4.05;;;3.53;;
25479;SDS011;13393;49.378;8.686;2022-11-20T00:13:33;3.75;;;3.17;;
25479;SDS011;13393;49.378;8.686;2022-11-20T00:16:00;4.38;;;3.70;;
25479;SDS011;13393;49.378;8.686;2022-11-20T00:18:27;4.70;;;4.07;;
25479;SDS011;13393;49.378;8.686;2022-11-20T00:20:59;7.32;;;4.80;;
25479;SDS011;13393;49.378;8.686;2022-11-20T00:23:26;5.78;;;5.07;;
25479;SDS011;13393;49.378;8.686;2022-11-20T00:25:52;5.97;;;5.10;;
25479;SDS011;13393;49.378;8.686;2022-11-20T00:28:19;6.10;;;4.68;;
25479;SDS011;13393;49.378;8.686;2022-11-20T00:30:45;7.32;;;5.45;;
25479;SDS011;13393;49.378;8.686;2022-11-20T00:33:11;6.70;;;4.50;;
25479;SDS011;13393;49.378;8.686;2022-11-20T00:35:38;5.20;;;4.40;;
25479;SDS011;13393;49.378;8.686;2022-11-20T00:38:06;5.13;;;4.35;;
25479;SDS011;13393;49.378;8.686;2022-11-20T00:40:32;5.10;;;4.22;;
25479;SDS011;13393;49.378;8.686;2022-11-20T00:42:58;3.75;;;3.20;;
25479;SDS011;13393;49.378;8.686;2022-11-20T00:45:25;4.72;;;3.70;;
25479;SDS011;13393;49.378;8.686;2022-11-20T00:47:51;4.30;;;3.72;;
25479;SDS011;13393;49.378;8.686;2022-11-20T00:50:18;4.78;;;4.20;;
25479;SDS011;13393;49.378;8.686;2022-11-20T00:52:44;6.82;;;4.30;;
25479;SDS011;13393;49.378;8.686;2022-11-20T00:55:12;4.63;;;4.13;;
25479;SDS011;13393;49.378;8.686;2022-11-20T00:57:38;5.20;;;4.22;;
25479;SDS011;13393;49.378;8.686;2022-11-20T01:00:05;4.93;;;4.40;;
25479;SDS011;13393;49.378;8.686;2022-11-20T01:02:32;4.55;;;4.07;;
25479;SDS011;13393;49.378;8.686;2022-11-20T01:04:58;5.53;;;4.72;;
25479;SDS011;13393;49.378;8.686;2022-11-20T01:07:25;5.57;;;4.60;;
25479;SDS011;13393;49.378;8.686;2022-11-20T01:09:51;5.43;;;4.60;;
25479;SDS011;13393;49.378;8.686;2022-11-20T01:12:19;5.20;;;4.70;;
25479;SDS011;13393;49.378;8.686;2022-11-20T01:14:46;6.75;;;5.32;;
25479;SDS011;13393;49.378;8.686;2022-11-20T01:17:13;5.70;;;4.72;;
25479;SDS011;13393;49.378;8.686;2022-11-20T01:19:39;5.57;;;4.78;;
25479;SDS011;13393;49.378;8.686;2022-11-20T01:22:06;5.47;;;4.63;;
25479;SDS011;13393;49.378;8.686;2022-11-20T01:24:32;5.07;;;4.32;;
25479;SDS011;13393;49.378;8.686;2022-11-20T01:26:58;7.22;;;4.63;;
25479;SDS011;13393;49.378;8.686;2022-11-20T01:29:26;5.10;;;4.47;;
25479;SDS011;13393;49.378;8.686;2022-11-20T01:31:53;5.53;;;4.68;;
25479;SDS011;13393;49.378;8.686;2022-11-20T01:34:19;5.88;;;5.22;;
25479;SDS011;13393;49.378;8.686;2022-11-20T01:36:47;6.65;;;5.55;;
25479;SDS011;13393;49.378;8.686;2022-11-20T01:39:14;7.90;;;6.07;;
25479;SDS011;13393;49.378;8.686;2022-11-20T01:41:41;6.38;;;5.75;;
25479;SDS011;13393;49.378;8.686;2022-11-20T01:47:12;6.47;;;5.38;;
25479;SDS011;13393;49.378;8.686;2022-11-20T01:49:40;7.03;;;4.93;;
25479;SDS011;13393;49.378;8.686;2022-11-20T01:52:10;5.93;;;5.07;;
25479;SDS011;13393;49.378;8.686;2022-11-20T01:54:39;6.38;;;5.25;;
25479;SDS011;13393;49.378;8.686;2022-11-20T01:57:07;6.40;;;5.63;;
25479;SDS011;13393;49.378;8.686;2022-11-20T01:59:35;7.22;;;5.70;;
25479;SDS011;13393;49.378;8.686;2022-11-20T02:02:04;7.30;;;5.35;;
25479;SDS011;13393;49.378;8.686;2022-11-20T02:04:32;8.13;;;5.20;;
25479;SDS011;13393;49.378;8.686;2022-11-20T02:06:59;8.73;;;5.72;;
25479;SDS011;13393;49.378;8.686;2022-11-20T02:09:26;7.15;;;5.78;;
25479;SDS011;13393;49.378;8.686;2022-11-20T02:11:52;6.50;;;5.75;;
25479;SDS011;13393;49.378;8.686;2022-11-20T02:14:19;7.35;;;6.28;;
25479;SDS011;13393;49.378;8.686;2022-11-20T02:16:45;7.15;;;5.70;;
25479;SDS011;13393;49.378;8.686;2022-11-20T02:19:14;7.20;;;5.93;;
25479;SDS011;13393;49.378;8.686;2022-11-20T02:21:44;5.85;;;5.20;;
25479;SDS011;13393;49.378;8.686;2022-11-20T02:24:14;6.45;;;5.75;;
25479;SDS011;13393;49.378;8.686;2022-11-20T02:26:43;6.40;;;5.65;;
25479;SDS011;13393;49.378;8.686;2022-11-20T02:29:10;8.20;;;6.28;;
25479;SDS011;13393;49.378;8.686;2022-11-20T02:31:37;6.90;;;5.90;;
25479;SDS011;13393;49.378;8.686;2022-11-20T02:34:04;9.15;;;4.93;;
25479;SDS011;13393;49.378;8.686;2022-11-20T02:36:30;7.68;;;6.05;;
25479;SDS011;13393;49.378;8.686;2022-11-20T02:38:58;7.00;;;6.03;;
25479;SDS011;13393;49.378;8.686;2022-11-20T02:41:31;8.40;;;6.28;;
25479;SDS011;13393;49.378;8.686;2022-11-20T02:43:58;8.60;;;7.18;;
25479;SDS011;13393;49.378;8.686;2022-11-20T02:46:24;9.45;;;6.82;;
25479;SDS011;13393;49.378;8.686;2022-11-20T02:48:50;11.75;;;7.78;;
25479;SDS011;13393;49.378;8.686;2022-11-20T02:51:17;12.32;;;8.07;;
25479;SDS011;13393;49.378;8.686;2022-11-20T02:53:43;12.57;;;9.02;;
25479;SDS011;13393;49.378;8.686;2022-11-20T02:56:10;12.70;;;8.82;;
25479;SDS011;13393;49.378;8.686;2022-11-20T02:58:38;15.32;;;10.38;;
25479;SDS011;13393;49.378;8.686;2022-11-20T03:01:04;13.05;;;9.13;;
25479;SDS011;13393;49.378;8.686;2022-11-20T03:03:30;15.10;;;10.75;;
25479;SDS011;13393;49.378;8.686;2022-11-20T03:05:58;18.20;;;11.38;;
25479;SDS011;13393;49.378;8.686;2022-11-20T03:08:24;15.63;;;10.82;;
25479;SDS011;13393;49.378;8.686;2022-11-20T03:10:51;16.58;;;11.32;;
25479;SDS011;13393;49.378;8.686;2022-11-20T03:13:17;13.45;;;9.85;;
25479;SDS011;13393;49.378;8.686;2022-11-20T03:15:45;16.20;;;11.73;;
25479;SDS011;13393;49.378;8.686;2022-11-20T03:18:12;17.17;;;12.38;;
25479;SDS011;13393;49.378;8.686;2022-11-20T03:20:38;17.85;;;11.73;;
25479;SDS011;13393;49.378;8.686;2022-11-20T03:23:05;15.27;;;10.95;;
25479;SDS011;13393;49.378;8.686;2022-11-20T03:25:31;16.45;;;10.90;;
25479;SDS011;13393;49.378;8.686;2022-11-20T03:27:58;16.15;;;12.00;;
25479;SDS011;13393;49.378;8.686;2022-11-20T03:30:24;14.80;;;10.77;;
25479;SDS011;13393;49.378;8.686;2022-11-20T03:32:53;14.70;;;11.02;;
25479;SDS011;13393;49.378;8.686;2022-11-20T03:35:20;16.10;;;11.30;;
25479;SDS011;13393;49.378;8.686;2022-11-20T03:37:46;17.77;;;12.07;;
25479;SDS011;13393;49.378;8.686;2022-11-20T03:40:13;18.25;;;12.90;;
25479;SDS011;13393;49.378;8.686;2022-11-20T03:42:39;16.40;;;10.88;;
25479;SDS011;13393;49.378;8.686;2022-11-20T03:45:12;18.20;;;11.75;;
25479;SDS011;13393;49.378;8.686;2022-11-20T03:47:39;14.68;;;11.30;;
25479;SDS011;13393;49.378;8.686;2022-11-20T03:50:07;18.67;;;11.50;;
25479;SDS011;13393;49.378;8.686;2022-11-20T03:52:34;17.42;;;12.00;;
25479;SDS011;13393;49.378;8.686;2022-11-20T03:55:00;15.77;;;11.50;;
25479;SDS011;13393;49.378;8.686;2022-11-20T03:57:26;17.05;;;11.52;;
25479;SDS011;13393;49.378;8.686;2022-11-20T03:59:53;18.35;;;11.80;;
25479;SDS011;13393;49.378;8.686;2022-11-20T04:02:19;15.63;;;10.52;;
25479;SDS011;13393;49.378;8.686;2022-11-20T04:04:46;14.60;;;10.55;;
25479;SDS011;13393;49.378;8.686;2022-11-20T04:07:13;12.98;;;10.02;;
25479;SDS011;13393;49.378;8.686;2022-11-20T04:09:40;13.52;;;10.20;;
25479;SDS011;13393;49.378;8.686;2022-11-20T04:12:06;16.02;;;9.65;;
25479;SDS011;13393;49.378;8.686;2022-11-20T04:14:33;12.50;;;10.32;;
25479;SDS011;13393;49.378;8.686;2022-11-20T04:16:59;13.38;;;9.88;;
25479;SDS011;13393;49.378;8.686;2022-11-20T04:19:26;14.80;;;10.48;;
25479;SDS011;13393;49.378;8.686;2022-11-20T04:21:52;13.27;;;9.52;;
25479;SDS011;13393;49.378;8.686;2022-11-20T04:24:20;14.00;;;9.90;;
25479;SDS011;13393;49.378;8.686;2022-11-20T04:26:46;13.73;;;9.82;;
25479;SDS011;13393;49.378;8.686;2022-11-20T04:29:13;12.90;;;9.32;;
25479;SDS011;13393;49.378;8.686;2022-11-20T04:31:39;11.10;;;9.10;;
25479;SDS011;13393;49.378;8.686;2022-11-20T04:34:06;17.63;;;10.48;;
25479;SDS011;13393;49.378;8.686;2022-11-20T04:36:33;11.70;;;9.18;;
25479;SDS011;13393;49.378;8.686;2022-11-20T04:39:00;13.85;;;9.68;;
25479;SDS011;13393;49.378;8.686;2022-11-20T04:41:29;13.20;;;9.57;;
25479;SDS011;13393;49.378;8.686;2022-11-20T04:43:56;11.88;;;9.57;;
25479;SDS011;13393;49.378;8.686;2022-11-20T04:46:24;11.75;;;8.52;;
25479;SDS011;13393;49.378;8.686;2022-11-20T04:48:51;12.27;;;9.00;;
25479;SDS011;13393;49.378;8.686;2022-11-20T04:51:17;11.05;;;8.80;;
25479;SDS011;13393;49.378;8.686;2022-11-20T04:53:44;12.27;;;9.15;;
25479;SDS011;13393;49.378;8.686;2022-11-20T04:56:11;11.50;;;9.15;;
25479;SDS011;13393;49.378;8.686;2022-11-20T04:58:39;16.85;;;11.10;;
25479;SDS011;13393;49.378;8.686;2022-11-20T05:01:06;16.98;;;11.55;;
25479;SDS011;13393;49.378;8.686;2022-11-20T05:03:32;10.93;;;9.27;;
25479;SDS011;13393;49.378;8.686;2022-11-20T05:06:00;14.80;;;11.30;;
25479;SDS011;13393;49.378;8.686;2022-11-20T05:08:26;15.43;;;10.48;;
25479;SDS011;13393;49.378;8.686;2022-11-20T05:10:53;13.23;;;10.25;;
25479;SDS011;13393;49.378;8.686;2022-11-20T05:13:19;12.90;;;9.32;;
25479;SDS011;13393;49.378;8.686;2022-11-20T05:15:47;13.65;;;8.95;;
25479;SDS011;13393;49.378;8.686;2022-11-20T05:18:13;11.68;;;8.65;;
25479;SDS011;13393;49.378;8.686;2022-11-20T05:20:40;13.68;;;9.40;;
25479;SDS011;13393;49.378;8.686;2022-11-20T05:23:06;12.45;;;10.13;;
25479;SDS011;13393;49.378;8.686;2022-11-20T05:25:32;14.55;;;11.23;;
25479;SDS011;13393;49.378;8.686;2022-11-20T05:27:59;13.90;;;10.30;;
25479;SDS011;13393;49.378;8.686;2022-11-20T05:30:25;12.77;;;9.70;;
25479;SDS011;13393;49.378;8.686;2022-11-20T05:32:53;12.57;;;9.52;;
25479;SDS011;13393;49.378;8.686;2022-11-20T05:35:19;14.30;;;10.05;;
25479;SDS011;13393;49.378;8.686;2022-11-20T05:37:46;13.48;;;10.55;;
25479;SDS011;13393;49.378;8.686;2022-11-20T05:40:12;12.18;;;9.68;;
25479;SDS011;13393;49.378;8.686;2022-11-20T05:42:39;14.90;;;10.98;;
25479;SDS011;13393;49.378;8.686;2022-11-20T05:45:05;15.43;;;11.18;;
25479;SDS011;13393;49.378;8.686;2022-11-20T05:47:33;13.13;;;10.45;;
25479;SDS011;13393;49.378;8.686;2022-11-20T05:50:01;15.20;;;11.48;;
25479;SDS011;13393;49.378;8.686;2022-11-20T05:52:28;14.90;;;10.68;;
25479;SDS011;13393;49.378;8.686;2022-11-20T05:54:54;13.10;;;10.73;;
25479;SDS011;13393;49.378;8.686;2022-11-20T05:57:20;14.65;;;11.77;;
25479;SDS011;13393;49.378;8.686;2022-11-20T05:59:47;14.30;;;11.13;;
25479;SDS011;13393;49.378;8.686;2022-11-20T06:02:13;15.57;;;11.20;;
25479;SDS011;13393;49.378;8.686;2022-11-20T06:04:40;13.70;;;10.30;;
25479;SDS011;13393;49.378;8.686;2022-11-20T06:07:07;16.27;;;11.35;;
25479;SDS011;13393;49.378;8.686;2022-11-20T06:09:34;15.70;;;11.10;;
25479;SDS011;13393;49.378;8.686;2022-11-20T06:12:00;17.65;;;11.30;;
25479;SDS011;13393;49.378;8.686;2022-11-20T06:14:27;12.95;;;9.88;;
25479;SDS011;13393;49.378;8.686;2022-11-20T06:16:53;12.48;;;9.77;;
25479;SDS011;13393;49.378;8.686;2022-11-20T06:19:19;15.85;;;10.35;;
25479;SDS011;13393;49.378;8.686;2022-11-20T06:21:47;14.63;;;9.68;;
25479;SDS011;13393;49.378;8.686;2022-11-20T06:24:15;12.15;;;9.55;;
25479;SDS011;13393;49.378;8.686;2022-11-20T06:26:41;12.55;;;9.32;;
25479;SDS011;13393;49.378;8.686;2022-11-20T06:29:08;12.65;;;9.02;;
25479;SDS011;13393;49.378;8.686;2022-11-20T06:31:34;14.38;;;9.65;;
25479;SDS011;13393;49.378;8.686;2022-11-20T06:34:02;11.02;;;8.80;;
25479;SDS011;13393;49.378;8.686;2022-11-20T06:36:29;13.00;;;9.48;;
25479;SDS011;13393;49.378;8.686;2022-11-20T06:38:55;15.23;;;9.50;;
25479;SDS011;13393;49.378;8.686;2022-11-20T06:41:23;11.52;;;9.18;;
25479;SDS011;13393;49.378;8.686;2022-11-20T06:43:50;10.02;;;8.70;;
25479;SDS011;13393;49.378;8.686;2022-11-20T06:46:17;11.10;;;8.60;;
25479;SDS011;13393;49.378;8.686;2022-11-20T06:48:44;11.18;;;8.73;;
25479;SDS011;13393;49.378;8.686;2022-11-20T06:51:11;10.00;;;8.02;;
25479;SDS011;13393;49.378;8.686;2022-11-20T06:53:37;9.25;;;7.78;;
25479;SDS011;13393;49.378;8.686;2022-11-20T06:56:04;9.90;;;7.95;;
25479;SDS011;13393;49.378;8.686;2022-11-20T06:58:32;11.68;;;7.68;;
25479;SDS011;13393;49.378;8.686;2022-11-20T07:00:59;13.10;;;8.05;;
25479;SDS011;13393;49.378;8.686;2022-11-20T07:03:25;9.23;;;7.45;;
25479;SDS011;13393;49.378;8.686;2022-11-20T07:05:53;9.13;;;7.32;;
25479;SDS011;13393;49.378;8.686;2022-11-20T07:08:20;11.43;;;7.75;;
25479;SDS011;13393;49.378;8.686;2022-11-20T07:10:46;10.60;;;7.03;;
25479;SDS011;13393;49.378;8.686;2022-11-20T07:13:13;10.25;;;7.10;;
25479;SDS011;13393;49.378;8.686;2022-11-20T07:15:41;11.15;;;7.80;;
25479;SDS011;13393;49.378;8.686;2022-11-20T07:18:07;8.65;;;6.95;;
25479;SDS011;13393;49.378;8.686;2022-11-20T07:20:34;7.60;;;6.50;;
25479;SDS011;13393;49.378;8.686;2022-11-20T07:23:00;12.55;;;7.82;;
25479;SDS011;13393;49.378;8.686;2022-11-20T07:25:27;9.02;;;6.82;;
25479;SDS011;13393;49.378;8.686;2022-11-20T07:27:56;8.65;;;6.28;;
25479;SDS011;13393;49.378;8.686;2022-11-20T07:30:22;8.27;;;6.97;;
25479;SDS011;13393;49.378;8.686;2022-11-20T07:32:51;10.32;;;7.55;;
25479;SDS011;13393;49.378;8.686;2022-11-20T07:35:18;8.48;;;7.07;;
25479;SDS011;13393;49.378;8.686;2022-11-20T07:37:44;9.77;;;6.80;;
25479;SDS011;13393;49.378;8.686;2022-11-20T07:40:12;8.68;;;7.15;;
25479;SDS011;13393;49.378;8.686;2022-11-20T07:42:38;10.35;;;7.22;;
25479;SDS011;13393;49.378;8.686;2022-11-20T07:45:05;11.23;;;7.53;;
25479;SDS011;13393;49.378;8.686;2022-11-20T07:47:34;12.32;;;7.70;;
25479;SDS011;13393;49.378;8.686;2022-11-20T07:50:02;11.68;;;7.78;;
25479;SDS011;13393;49.378;8.686;2022-11-20T07:52:28;10.40;;;7.43;;
25479;SDS011;13393;49.378;8.686;2022-11-20T07:54:55;10.35;;;7.78;;
25479;SDS011;13393;49.378;8.686;2022-11-20T07:57:21;9.45;;;7.40;;
25479;SDS011;13393;49.378;8.686;2022-11-20T07:59:47;8.70;;;6.88;;
25479;SDS011;13393;49.378;8.686;2022-11-20T08:02:14;9.00;;;6.63;;
25479;SDS011;13393;49.378;8.686;2022-11-20T08:04:40;9.77;;;7.32;;
25479;SDS011;13393;49.378;8.686;2022-11-20T08:07:08;9.18;;;6.95;;
25479;SDS011;13393;49.378;8.686;2022-11-20T08:09:34;9.65;;;6.43;;
25479;SDS011;13393;49.378;8.686;2022-11-20T08:12:01;6.97;;;6.03;;
25479;SDS011;13393;49.378;8.686;2022-11-20T08:14:45;7.20;;;6.43;;
25479;SDS011;13393;49.378;8.686;2022-11-20T08:17:11;9.02;;;6.50;;
25479;SDS011;13393;49.378;8.686;2022-11-20T08:19:38;10.60;;;6.65;;
25479;SDS011;13393;49.378;8.686;2022-11-20T08:22:04;8.90;;;6.03;;
25479;SDS011;13393;49.378;8.686;2022-11-20T08:24:32;8.23;;;6.18;;
25479;SDS011;13393;49.378;8.686;2022-11-20T08:26:58;6.85;;;5.55;;
25479;SDS011;13393;49.378;8.686;2022-11-20T08:29:25;6.50;;;5.35;;
25479;SDS011;13393;49.378;8.686;2022-11-20T08:31:52;9.45;;;5.65;;
25479;SDS011;13393;49.378;8.686;2022-11-20T08:34:18;8.60;;;5.47;;
25479;SDS011;13393;49.378;8.686;2022-11-20T08:36:45;6.55;;;5.15;;
25479;SDS011;13393;49.378;8.686;2022-11-20T08:39:11;7.85;;;5.20;;
25479;SDS011;13393;49.378;8.686;2022-11-20T08:41:39;7.43;;;5.43;;
25479;SDS011;13393;49.378;8.686;2022-11-20T08:44:06;7.38;;;4.30;;
25479;SDS011;13393;49.378;8.686;2022-11-20T08:46:34;5.82;;;4.72;;
25479;SDS011;13393;49.378;8.686;2022-11-20T08:49:01;7.18;;;5.00;;
25479;SDS011;13393;49.378;8.686;2022-11-20T08:51:28;6.13;;;4.40;;
25479;SDS011;13393;49.378;8.686;2022-11-20T08:53:54;5.60;;;4.95;;
25479;SDS011;13393;49.378;8.686;2022-11-20T08:56:21;7.03;;;4.07;;
25479;SDS011;13393;49.378;8.686;2022-11-20T08:58:49;5.75;;;4.43;;
25479;SDS011;13393;49.378;8.686;2022-11-20T09:01:15;7.78;;;4.65;;
25479;SDS011;13393;49.378;8.686;2022-11-20T09:03:42;5.30;;;3.72;;
25479;SDS011;13393;49.378;8.686;2022-11-20T09:06:08;8.80;;;4.75;;
25479;SDS011;13393;49.378;8.686;2022-11-20T09:08:35;6.07;;;4.07;;
25479;SDS011;13393;49.378;8.686;2022-11-20T09:11:02;4.85;;;3.83;;
25479;SDS011;13393;49.378;8.686;2022-11-20T09:13:29;4.80;;;3.83;;
25479;SDS011;13393;49.378;8.686;2022-11-20T09:15:57;6.22;;;4.32;;
25479;SDS011;13393;49.378;8.686;2022-11-20T09:18:24;6.18;;;4.32;;
25479;SDS011;13393;49.378;8.686;2022-11-20T09:20:50;6.32;;;4.53;;
25479;SDS011;13393;49.378;8.686;2022-11-20T09:23:17;4.78;;;4.28;;
25479;SDS011;13393;49.378;8.686;2022-11-20T09:25:43;5.00;;;4.35;;
25479;SDS011;13393;49.378;8.686;2022-11-20T09:28:09;7.93;;;4.70;;
25479;SDS011;13393;49.378;8.686;2022-11-20T09:30:36;8.05;;;4.45;;
25479;SDS011;13393;49.378;8.686;2022-11-20T09:33:05;6.38;;;4.50;;
25479;SDS011;13393;49.378;8.686;2022-11-20T09:35:31;6.32;;;3.95;;
25479;SDS011;13393;49.378;8.686;2022-11-20T09:37:58;5.43;;;4.10;;
25479;SDS011;13393;49.378;8.686;2022-11-20T09:40:25;5.50;;;4.38;;
25479;SDS011;13393;49.378;8.686;2022-11-20T09:42:54;5.15;;;4.60;;
25479;SDS011;13393;49.378;8.686;2022-11-20T09:45:23;4.53;;;4.05;;
25479;SDS011;13393;49.378;8.686;2022-11-20T09:47:58;7.15;;;4.07;;
25479;SDS011;13393;49.378;8.686;2022-11-20T09:50:28;5.13;;;3.92;;
25479;SDS011;13393;49.378;8.686;2022-11-20T09:53:00;5.70;;;4.10;;
25479;SDS011;13393;49.378;8.686;2022-11-20T09:55:31;5.40;;;4.60;;
25479;SDS011;13393;49.378;8.686;2022-11-20T09:57:57;5.45;;;4.45;;
25479;SDS011;13393;49.378;8.686;2022-11-20T10:00:25;9.68;;;5.43;;
25479;SDS011;13393;49.378;8.686;2022-11-20T10:02:53;8.07;;;5.18;;
25479;SDS011;13393;49.378;8.686;2022-11-20T10:05:21;5.32;;;4.05;;
25479;SDS011;13393;49.378;8.686;2022-11-20T10:07:52;6.75;;;4.72;;
25479;SDS011;13393;49.378;8.686;2022-11-20T10:10:22;6.07;;;4.28;;
25479;SDS011;13393;49.378;8.686;2022-11-20T10:12:57;5.93;;;4.45;;
25479;SDS011;13393;49.378;8.686;2022-11-20T10:15:27;5.25;;;4.32;;
25479;SDS011;13393;49.378;8.686;2022-11-20T10:18:02;4.82;;;4.28;;
25479;SDS011;13393;49.378;8.686;2022-11-20T10:20:34;5.63;;;4.38;;
25479;SDS011;13393;49.378;8.686;2022-11-20T10:23:11;6.82;;;4.90;;
25479;SDS011;13393;49.378;8.686;2022-11-20T10:25:42;5.13;;;4.40;;
25479;SDS011;13393;49.378;8.686;2022-11-20T10:28:17;5.10;;;4.20;;
25479;SDS011;13393;49.378;8.686;2022-11-20T10:30:48;4.32;;;3.92;;
25479;SDS011;13393;49.378;8.686;2022-11-20T10:33:17;6.63;;;4.20;;
25479;SDS011;13393;49.378;8.686;2022-11-20T10:35:45;7.82;;;4.38;;
25479;SDS011;13393;49.378;8.686;2022-11-20T10:38:17;5.70;;;4.32;;
25479;SDS011;13393;49.378;8.686;2022-11-20T10:40:46;5.35;;;3.78;;
25479;SDS011;13393;49.378;8.686;2022-11-20T10:43:15;4.38;;;3.65;;
25479;SDS011;13393;49.378;8.686;2022-11-20T10:45:47;4.72;;;3.80;;
25479;SDS011;13393;49.378;8.686;2022-11-20T10:48:16;4.90;;;3.55;;
25479;SDS011;13393;49.378;8.686;2022-11-20T10:53:31;4.63;;;4.18;;
25479;SDS011;13393;49.378;8.686;2022-11-20T10:56:00;4.68;;;4.07;;
25479;SDS011;13393;49.378;8.686;2022-11-20T10:58:33;4.80;;;4.03;;
25479;SDS011;13393;49.378;8.686;2022-11-20T11:01:03;5.45;;;4.32;;
25479;SDS011;13393;49.378;8.686;2022-11-20T11:03:30;3.75;;;3.45;;
25479;SDS011;13393;49.378;8.686;2022-11-20T11:05:59;4.72;;;4.32;;
25479;SDS011;13393;49.378;8.686;2022-11-20T11:08:28;4.68;;;3.80;;
25479;SDS011;13393;49.378;8.686;2022-11-20T11:10:57;4.65;;;3.47;;
25479;SDS011;13393;49.378;8.686;2022-11-20T11:13:24;3.85;;;3.38;;
25479;SDS011;13393;49.378;8.686;2022-11-20T11:15:51;4.75;;;3.28;;
25479;SDS011;13393;49.378;8.686;2022-11-20T11:18:24;5.63;;;3.22;;
25479;SDS011;13393;49.378;8.686;2022-11-20T11:20:51;4.03;;;2.72;;
25479;SDS011;13393;49.378;8.686;2022-11-20T11:23:23;3.50;;;2.75;;
25479;SDS011;13393;49.378;8.686;2022-11-20T11:28:21;4.47;;;2.83;;
25479;SDS011;13393;49.378;8.686;2022-11-20T11:30:49;4.10;;;2.88;;
25479;SDS011;13393;49.378;8.686;2022-11-20T11:33:18;3.15;;;2.85;;
25479;SDS011;13393;49.378;8.686;2022-11-20T11:35:45;2.72;;;2.30;;
25479;SDS011;13393;49.378;8.686;2022-11-20T11:38:13;2.80;;;2.08;;
25479;SDS011;13393;49.378;8.686;2022-11-20T11:40:41;3.58;;;2.55;;
25479;SDS011;13393;49.378;8.686;2022-11-20T11:43:16;4.47;;;3.03;;
25479;SDS011;13393;49.378;8.686;2022-11-20T11:45:59;5.05;;;3.13;;
25479;SDS011;13393;49.378;8.686;2022-11-20T11:48:25;6.68;;;3.13;;
25479;SDS011;13393;49.378;8.686;2022-11-20T11:50:51;3.97;;;2.70;;
25479;SDS011;13393;49.378;8.686;2022-11-20T11:53:19;5.07;;;3.17;;
25479;SDS011;13393;49.378;8.686;2022-11-20T11:55:46;6.28;;;3.60;;
25479;SDS011;13393;49.378;8.686;2022-11-20T11:58:17;4.20;;;3.05;;
25479;SDS011;13393;49.378;8.686;2022-11-20T12:00:49;5.50;;;3.05;;
25479;SDS011;13393;49.378;8.686;2022-11-20T12:03:18;5.25;;;4.10;;
25479;SDS011;13393;49.378;8.686;2022-11-20T12:05:46;5.90;;;3.90;;
25479;SDS011;13393;49.378;8.686;2022-11-20T12:08:15;5.97;;;4.68;;
25479;SDS011;13393;49.378;8.686;2022-11-20T12:10:44;7.00;;;5.55;;
25479;SDS011;13393;49.378;8.686;2022-11-20T12:13:15;8.85;;;5.13;;
25479;SDS011;13393;49.378;8.686;2022-11-20T12:15:44;6.75;;;4.90;;
25479;SDS011;13393;49.378;8.686;2022-11-20T12:18:14;7.57;;;5.80;;
25479;SDS011;13393;49.378;8.686;2022-11-20T12:20:43;9.02;;;5.90;;
25479;SDS011;13393;49.378;8.686;2022-11-20T12:23:14;11.35;;;6.80;;
25479;SDS011;13393;49.378;8.686;2022-11-20T12:25:43;9.90;;;7.28;;
25479;SDS011;13393;49.378;8.686;2022-11-20T12:31:05;8.55;;;5.85;;
25479;SDS011;13393;49.378;8.686;2022-11-20T12:36:32;7.20;;;5.60;;
25479;SDS011;13393;49.378;8.686;2022-11-20T12:41:51;9.70;;;5.70;;
25479;SDS011;13393;49.378;8.686;2022-11-20T12:44:54;7.28;;;4.88;;
25479;SDS011;13393;49.378;8.686;2022-11-20T12:47:38;5.00;;;3.15;;
25479;SDS011;13393;49.378;8.686;2022-11-20T12:50:08;5.15;;;1.70;;
25479;SDS011;13393;49.378;8.686;2022-11-20T12:52:44;5.03;;;1.75;;
25479;SDS011;13393;49.378;8.686;2022-11-20T12:55:16;4.05;;;1.80;;
25479;SDS011;13393;49.378;8.686;2022-11-20T12:57:48;3.90;;;1.60;;
25479;SDS011;13393;49.378;8.686;2022-11-20T13:00:16;5.82;;;2.00;;
25479;SDS011;13393;49.378;8.686;2022-11-20T13:03:00;5.68;;;2.42;;
25479;SDS011;13393;49.378;8.686;2022-11-20T13:05:35;4.75;;;2.00;;
25479;SDS011;13393;49.378;8.686;2022-11-20T13:08:06;5.78;;;1.95;;
25479;SDS011;13393;49.378;8.686;2022-11-20T13:10:37;5.75;;;2.10;;
25479;SDS011;13393;49.378;8.686;2022-11-20T13:13:10;4.07;;;1.60;;
25479;SDS011;13393;49.378;8.686;2022-11-20T13:15:42;4.88;;;1.70;;
25479;SDS011;13393;49.378;8.686;2022-11-20T13:18:10;4.47;;;1.77;;
25479;SDS011;13393;49.378;8.686;2022-11-20T13:20:40;5.78;;;2.08;;
25479;SDS011;13393;49.378;8.686;2022-11-20T13:23:08;5.13;;;1.75;;
25479;SDS011;13393;49.378;8.686;2022-11-20T13:25:35;3.42;;;2.00;;
25479;SDS011;13393;49.378;8.686;2022-11-20T13:28:03;3.00;;;1.80;;
25479;SDS011;13393;49.378;8.686;2022-11-20T13:30:30;3.00;;;1.42;;
25479;SDS011;13393;49.378;8.686;2022-11-20T13:32:57;3.15;;;1.35;;
25479;SDS011;13393;49.378;8.686;2022-11-20T13:35:27;4.70;;;1.63;;
25479;SDS011;13393;49.378;8.686;2022-11-20T13:38:06;3.00;;;1.48;;
25479;SDS011;13393;49.378;8.686;2022-11-20T13:40:35;8.02;;;1.90;;
25479;SDS011;13393;49.378;8.686;2022-11-20T13:43:07;7.85;;;1.75;;
25479;SDS011;13393;49.378;8.686;2022-11-20T13:45:34;2.45;;;1.20;;
25479;SDS011;13393;49.378;8.686;2022-11-20T13:48:02;4.95;;;1.63;;
25479;SDS011;13393;49.378;8.686;2022-11-20T13:50:39;7.38;;;2.15;;
25479;SDS011;13393;49.378;8.686;2022-11-20T13:53:08;4.65;;;1.20;;
25479;SDS011;13393;49.378;8.686;2022-11-20T13:55:42;4.45;;;1.60;;
25479;SDS011;13393;49.378;8.686;2022-11-20T13:58:22;6.40;;;1.27;;
25479;SDS011;13393;49.378;8.686;2022-11-20T14:00:55;3.10;;;1.13;;
25479;SDS011;13393;49.378;8.686;2022-11-20T14:03:23;1.77;;;1.00;;
25479;SDS011;13393;49.378;8.686;2022-11-20T14:05:50;3.60;;;1.50;;
25479;SDS011;13393;49.378;8.686;2022-11-20T14:08:21;3.60;;;1.30;;
25479;SDS011;13393;49.378;8.686;2022-11-20T14:10:51;3.00;;;1.60;;
25479;SDS011;13393;49.378;8.686;2022-11-20T14:13:28;5.13;;;1.60;;
25479;SDS011;13393;49.378;8.686;2022-11-20T14:15:56;3.38;;;1.38;;
25479;SDS011;13393;49.378;8.686;2022-11-20T14:18:22;3.80;;;1.15;;
25479;SDS011;13393;49.378;8.686;2022-11-20T14:20:49;6.25;;;1.38;;
25479;SDS011;13393;49.378;8.686;2022-11-20T14:23:23;3.15;;;1.20;;
25479;SDS011;13393;49.378;8.686;2022-11-20T14:25:51;3.95;;;1.38;;
25479;SDS011;13393;49.378;8.686;2022-11-20T14:28:19;3.40;;;1.50;;
25479;SDS011;13393;49.378;8.686;2022-11-20T14:30:47;3.13;;;1.92;;
25479;SDS011;13393;49.378;8.686;2022-11-20T14:33:15;3.47;;;1.60;;
25479;SDS011;13393;49.378;8.686;2022-11-20T14:35:44;3.85;;;1.33;;
25479;SDS011;13393;49.378;8.686;2022-11-20T14:38:11;4.10;;;1.30;;
25479;SDS011;13393;49.378;8.686;2022-11-20T14:40:38;3.05;;;1.45;;
25479;SDS011;13393;49.378;8.686;2022-11-20T14:43:15;2.25;;;1.00;;
25479;SDS011;13393;49.378;8.686;2022-11-20T14:45:42;3.20;;;1.02;;
25479;SDS011;13393;49.378;8.686;2022-11-20T14:48:09;5.15;;;1.40;;
25479;SDS011;13393;49.378;8.686;2022-11-20T14:50:37;2.17;;;0.93;;
25479;SDS011;13393;49.378;8.686;2022-11-20T14:53:04;1.20;;;0.75;;
25479;SDS011;13393;49.378;8.686;2022-11-20T14:55:31;2.13;;;0.95;;
25479;SDS011;13393;49.378;8.686;2022-11-20T14:57:58;2.78;;;1.30;;
25479;SDS011;13393;49.378;8.686;2022-11-20T15:00:27;3.45;;;1.25;;
25479;SDS011;13393;49.378;8.686;2022-11-20T15:02:53;2.00;;;1.05;;